createdAt,value
2017-12-16T00:01:05.608Z,-3.96
2017-12-16T00:02:15.325Z,-3.9
2017-12-16T00:03:25.039Z,-3.91
2017-12-16T00:04:35.017Z,-3.95
2017-12-16T00:05:45.062Z,-3.96
2017-12-16T00:06:55.040Z,-3.88
2017-12-16T00:08:05.020Z,-3.94
2017-12-16T00:09:14.999Z,-3.98
2017-12-16T00:10:24.450Z,-3.91
2017-12-16T00:11:34.168Z,-3.94
2017-12-16T00:12:43.885Z,-3.98
2017-12-16T00:13:53.862Z,-3.87
2017-12-16T00:15:03.863Z,-4.04
2017-12-16T00:16:13.862Z,-4.02
2017-12-16T00:17:23.584Z,-3.98
2017-12-16T00:18:33.586Z,-4.04
2017-12-16T00:19:43.566Z,-4.06
2017-12-16T00:20:53.545Z,-4.05
2017-12-16T00:22:03.053Z,-3.87
2017-12-16T00:23:13.045Z,-3.94
2017-12-16T00:24:23.028Z,-3.88
2017-12-16T00:25:33.014Z,-3.88
2017-12-16T00:26:42.992Z,-3.77
2017-12-16T00:27:52.973Z,-3.71
2017-12-16T00:29:02.956Z,-3.81
2017-12-16T00:30:12.670Z,-3.74
2017-12-16T00:31:22.652Z,-3.84
2017-12-16T00:32:32.377Z,-3.71
2017-12-16T00:33:42.354Z,-3.66
2017-12-16T00:34:52.342Z,-3.68
2017-12-16T00:36:02.331Z,-3.75
2017-12-16T00:37:12.047Z,-3.71
2017-12-16T00:38:22.039Z,-3.71
2017-12-16T00:39:31.770Z,-3.68
2017-12-16T00:40:41.749Z,-3.77
2017-12-16T00:41:51.734Z,-3.77
2017-12-16T00:43:01.718Z,-3.81
2017-12-16T00:44:11.432Z,-3.78
2017-12-16T00:45:21.143Z,-3.8
2017-12-16T00:46:31.121Z,-3.74
2017-12-16T00:47:40.843Z,-3.77
2017-12-16T00:48:52.824Z,-3.78
2017-12-16T00:50:02.807Z,-3.78
2017-12-16T00:51:12.785Z,-3.83
2017-12-16T00:52:22.765Z,-3.87
2017-12-16T00:53:32.740Z,-3.85
2017-12-16T00:54:42.718Z,-3.8
2017-12-16T00:55:52.706Z,-3.9
2017-12-16T00:57:02.688Z,-3.9
2017-12-16T00:58:12.664Z,-3.94
2017-12-16T00:59:22.646Z,-3.88
2017-12-16T01:00:32.359Z,-3.85
2017-12-16T01:01:42.075Z,-3.94
2017-12-16T01:02:52.058Z,-3.88
2017-12-16T01:04:02.036Z,-3.91
2017-12-16T01:05:12.021Z,-3.95
2017-12-16T01:06:21.736Z,-3.84
2017-12-16T01:07:31.454Z,-3.95
2017-12-16T01:08:41.170Z,-3.88
2017-12-16T01:09:51.148Z,-3.85
2017-12-16T01:11:01.133Z,-3.96
2017-12-16T01:12:11.111Z,-3.84
2017-12-16T01:13:21.092Z,-3.81
2017-12-16T01:14:30.812Z,-3.83
2017-12-16T01:15:40.795Z,-3.83
2017-12-16T01:16:50.511Z,-3.9
2017-12-16T01:18:00.234Z,-3.91
2017-12-16T01:19:10.215Z,-3.81
2017-12-16T01:20:20.203Z,-3.78
2017-12-16T01:21:29.916Z,-3.77
2017-12-16T01:22:39.899Z,-3.68
2017-12-16T01:23:51.612Z,-3.66
2017-12-16T01:25:01.331Z,-3.68
2017-12-16T01:26:11.312Z,-3.71
2017-12-16T01:27:21.294Z,-3.69
2017-12-16T01:28:31.268Z,-3.58
2017-12-16T01:29:41.255Z,-3.56
2017-12-16T01:30:51.241Z,-3.55
2017-12-16T01:32:00.959Z,-3.48
2017-12-16T01:33:10.938Z,-3.44
2017-12-16T01:34:20.922Z,-3.41
2017-12-16T01:35:30.914Z,-3.4
2017-12-16T01:36:40.625Z,-3.38
2017-12-16T01:37:50.604Z,-3.36
2017-12-16T01:39:00.582Z,-3.43
2017-12-16T01:40:10.569Z,-3.27
2017-12-16T01:41:20.279Z,-3.26
2017-12-16T01:42:29.995Z,-3.14
2017-12-16T01:43:39.979Z,-3.15
2017-12-16T01:44:49.962Z,-3.11
2017-12-16T01:45:59.949Z,-3.05
2017-12-16T01:47:09.929Z,-3.07
2017-12-16T01:48:19.641Z,-3.15
2017-12-16T01:49:29.620Z,-3.07
2017-12-16T01:50:39.597Z,-3.14
2017-12-16T01:51:49.586Z,-3.19
2017-12-16T01:52:59.571Z,-3.14
2017-12-16T01:54:09.292Z,-3.14
2017-12-16T01:55:19.283Z,-3.14
2017-12-16T01:56:28.996Z,-3.17
2017-12-16T01:57:38.974Z,-3.17
2017-12-16T01:58:48.969Z,-3.2
2017-12-16T01:59:59.019Z,-3.15
2017-12-16T02:01:09.004Z,-3.17
2017-12-16T02:02:18.984Z,-3.19
2017-12-16T02:03:28.963Z,-3.15
2017-12-16T02:04:38.951Z,-3.25
2017-12-16T02:05:48.929Z,-3.15
2017-12-16T02:06:58.908Z,-3.2
2017-12-16T02:08:08.886Z,-3.14
2017-12-16T02:09:18.868Z,-3.15
2017-12-16T02:10:28.851Z,-3.12
2017-12-16T02:11:38.838Z,-3.15
2017-12-16T02:12:48.822Z,-3.07
2017-12-16T02:13:58.818Z,-3.04
2017-12-16T02:15:08.800Z,-3.09
2017-12-16T02:16:18.783Z,-3.11
2017-12-16T02:17:28.500Z,-3.05
2017-12-16T02:18:38.478Z,-3.11
2017-12-16T02:19:48.459Z,-3.09
2017-12-16T02:20:58.171Z,-3.11
2017-12-16T02:22:08.152Z,-3.09
2017-12-16T02:23:18.130Z,-3.05
2017-12-16T02:24:27.843Z,-3.01
2017-12-16T02:25:37.556Z,-3.01
2017-12-16T02:26:47.531Z,-3.05
2017-12-16T02:27:57.508Z,-2.99
2017-12-16T02:29:07.487Z,-3.01
2017-12-16T02:30:17.467Z,-3.01
2017-12-16T02:31:27.455Z,-2.98
2017-12-16T02:32:37.439Z,-2.98
2017-12-16T02:33:47.427Z,-2.94
2017-12-16T02:34:57.419Z,-2.98
2017-12-16T02:36:07.152Z,-2.98
2017-12-16T02:37:16.871Z,-2.98
2017-12-16T02:38:26.854Z,-3.01
2017-12-16T02:39:36.847Z,-3.04
2017-12-16T02:40:46.831Z,-3.09
2017-12-16T02:41:56.824Z,-3.09
2017-12-16T02:43:06.818Z,-3.02
2017-12-16T02:44:16.533Z,-3.08
2017-12-16T02:45:26.520Z,-3.05
2017-12-16T02:46:36.509Z,-3.09
2017-12-16T02:47:46.499Z,-3.09
2017-12-16T02:48:56.484Z,-3.11
2017-12-16T02:50:06.469Z,-3.04
2017-12-16T02:51:16.471Z,-3.12
2017-12-16T02:52:26.185Z,-3.14
2017-12-16T02:53:36.169Z,-3.15
2017-12-16T02:54:45.889Z,-3.07
2017-12-16T02:55:55.883Z,-3.15
2017-12-16T02:57:05.864Z,-3.2
2017-12-16T02:58:15.858Z,-3.09
2017-12-16T02:59:25.838Z,-3.14
2017-12-16T03:00:35.824Z,-3.07
2017-12-16T03:01:45.805Z,-3.08
2017-12-16T03:02:55.780Z,-3.11
2017-12-16T03:04:05.768Z,-3.05
2017-12-16T03:05:15.754Z,-3.07
2017-12-16T03:06:25.729Z,-3.05
2017-12-16T03:07:35.709Z,-3.22
2017-12-16T03:08:45.420Z,-3.19
2017-12-16T03:09:55.397Z,-3.12
2017-12-16T03:11:05.434Z,-3.19
2017-12-16T03:12:15.423Z,-3.22
2017-12-16T03:13:25.407Z,-3.22
2017-12-16T03:14:35.391Z,-3.29
2017-12-16T03:15:45.102Z,-3.22
2017-12-16T03:16:55.079Z,-3.15
2017-12-16T03:18:05.056Z,-3.14
2017-12-16T03:19:14.767Z,-3.11
2017-12-16T03:20:24.801Z,-3.04
2017-12-16T03:21:34.520Z,-3.11
2017-12-16T03:22:44.501Z,-3.14
2017-12-16T03:23:54.477Z,-3.12
2017-12-16T03:25:04.461Z,-3.15
2017-12-16T03:26:14.440Z,-3.17
2017-12-16T03:27:24.429Z,-3.04
2017-12-16T03:28:34.406Z,-3.12
2017-12-16T03:29:44.391Z,-3.04
2017-12-16T03:30:54.411Z,-3.11
2017-12-16T03:32:04.136Z,-2.98
2017-12-16T03:33:13.850Z,-3.01
2017-12-16T03:34:23.838Z,-2.98
2017-12-16T03:35:33.816Z,-2.93
2017-12-16T03:36:43.535Z,-2.87
2017-12-16T03:37:53.516Z,-2.87
2017-12-16T03:39:03.504Z,-2.78
2017-12-16T03:40:13.488Z,-2.76
2017-12-16T03:41:23.465Z,-2.8
2017-12-16T03:42:33.176Z,-2.76
2017-12-16T03:43:43.163Z,-2.78
2017-12-16T03:44:53.149Z,-2.8
2017-12-16T03:46:02.858Z,-2.76
2017-12-16T03:47:12.572Z,-2.8
2017-12-16T03:48:22.556Z,-2.91
2017-12-16T03:49:32.835Z,-2.89
2017-12-16T03:50:42.814Z,-2.9
2017-12-16T03:51:52.842Z,-2.9
2017-12-16T03:53:02.824Z,-2.94
2017-12-16T03:54:12.804Z,-2.91
2017-12-16T03:55:22.783Z,-2.86
2017-12-16T03:56:32.767Z,-2.94
2017-12-16T03:57:42.747Z,-2.91
2017-12-16T03:58:52.733Z,-2.9
2017-12-16T04:00:02.720Z,-2.93
2017-12-16T04:03:44.733Z,-2.86
2017-12-16T04:04:54.709Z,-2.86
2017-12-16T04:06:04.689Z,-2.78
2017-12-16T04:07:14.403Z,-2.73
2017-12-16T04:08:24.381Z,-2.81
2017-12-16T04:09:34.358Z,-2.8
2017-12-16T04:10:44.339Z,-2.72
2017-12-16T04:11:54.114Z,-2.81
2017-12-16T04:13:04.091Z,-2.76
2017-12-16T04:14:13.802Z,-2.75
2017-12-16T04:15:23.787Z,-2.91
2017-12-16T04:16:33.762Z,-2.86
2017-12-16T04:17:43.473Z,-2.84
2017-12-16T04:18:53.453Z,-2.86
2017-12-16T04:20:03.455Z,-2.86
2017-12-16T04:21:13.431Z,-2.9
2017-12-16T04:22:23.439Z,-2.83
2017-12-16T04:23:32.628Z,-2.84
2017-12-16T04:24:42.348Z,-2.8
2017-12-16T04:25:52.323Z,-2.75
2017-12-16T04:27:02.306Z,-2.73
2017-12-16T04:28:12.292Z,-2.8
2017-12-16T04:29:22.277Z,-2.86
2017-12-16T04:30:32.254Z,-2.81
2017-12-16T04:31:41.968Z,-2.73
2017-12-16T04:32:51.944Z,-2.83
2017-12-16T04:34:01.918Z,-2.84
2017-12-16T04:35:11.894Z,-2.83
2017-12-16T04:36:21.872Z,-2.94
2017-12-16T04:37:31.845Z,-2.89
2017-12-16T04:38:41.824Z,-2.9
2017-12-16T04:39:51.808Z,-2.86
2017-12-16T04:41:01.789Z,-2.89
2017-12-16T04:42:11.776Z,-2.84
2017-12-16T04:43:21.759Z,-2.94
2017-12-16T04:44:31.226Z,-2.94
2017-12-16T04:45:41.205Z,-2.9
2017-12-16T04:46:51.192Z,-3.01
2017-12-16T04:48:01.169Z,-2.98
2017-12-16T04:49:11.155Z,-2.94
2017-12-16T04:50:21.132Z,-2.94
2017-12-16T04:51:31.110Z,-2.94
2017-12-16T04:52:41.091Z,-3.02
2017-12-16T04:53:50.810Z,-3.02
2017-12-16T04:55:00.790Z,-2.99
2017-12-16T04:56:10.771Z,-3.01
2017-12-16T04:57:20.757Z,-3.02
2017-12-16T04:58:30.788Z,-2.96
2017-12-16T04:59:40.767Z,-3.01
2017-12-16T05:00:50.480Z,-2.98
2017-12-16T05:02:00.199Z,-2.94
2017-12-16T05:03:10.178Z,-2.96
2017-12-16T05:04:19.945Z,-2.98
2017-12-16T05:05:29.924Z,-2.94
2017-12-16T05:06:39.905Z,-3.01
2017-12-16T05:07:49.892Z,-2.98
2017-12-16T05:08:59.869Z,-2.94
2017-12-16T05:10:09.845Z,-2.87
2017-12-16T05:11:19.874Z,-2.9
2017-12-16T05:12:29.851Z,-2.76
2017-12-16T05:13:39.838Z,-2.83
2017-12-16T05:14:49.819Z,-2.73
2017-12-16T05:15:59.793Z,-2.78
2017-12-16T05:17:09.505Z,-2.73
2017-12-16T05:18:19.485Z,-2.76
2017-12-16T05:19:29.462Z,-2.7
2017-12-16T05:20:39.176Z,-2.76
2017-12-16T05:21:49.155Z,-2.78
2017-12-16T05:22:59.133Z,-2.7
2017-12-16T05:24:08.844Z,-2.76
2017-12-16T05:25:18.830Z,-2.68
2017-12-16T05:26:28.810Z,-2.7
2017-12-16T05:27:38.790Z,-2.76
2017-12-16T05:28:48.828Z,-2.72
2017-12-16T05:29:58.809Z,-2.72
2017-12-16T05:31:08.793Z,-2.66
2017-12-16T05:32:18.790Z,-2.65
2017-12-16T05:33:28.766Z,-2.63
2017-12-16T05:34:38.744Z,-2.63
2017-12-16T05:35:48.459Z,-2.62
2017-12-16T05:36:58.437Z,-2.61
2017-12-16T05:38:08.418Z,-2.48
2017-12-16T05:39:18.143Z,-2.54
2017-12-16T05:40:27.870Z,-2.52
2017-12-16T05:41:37.850Z,-2.51
2017-12-16T05:42:47.567Z,-2.36
2017-12-16T05:43:57.548Z,-2.47
2017-12-16T05:45:07.577Z,-2.45
2017-12-16T05:46:17.559Z,-2.36
2017-12-16T05:47:27.538Z,-2.47
2017-12-16T05:48:37.514Z,-2.45
2017-12-16T05:49:47.551Z,-2.44
2017-12-16T05:50:57.263Z,-2.33
2017-12-16T05:52:06.979Z,-2.34
2017-12-16T05:53:16.700Z,-2.44
2017-12-16T05:54:26.684Z,-2.42
2017-12-16T05:55:36.661Z,-2.42
2017-12-16T05:56:46.662Z,-2.37
2017-12-16T05:57:56.646Z,-2.48
2017-12-16T05:59:06.625Z,-2.4
2017-12-16T06:00:16.435Z,-2.39
2017-12-16T06:01:26.417Z,-2.48
2017-12-16T06:02:36.395Z,-2.51
2017-12-16T06:03:46.375Z,-2.48
2017-12-16T06:04:56.358Z,-2.45
2017-12-16T06:06:06.338Z,-2.52
2017-12-16T06:07:16.052Z,-2.57
2017-12-16T06:08:26.037Z,-2.55
2017-12-16T06:09:36.015Z,-2.5
2017-12-16T06:10:45.995Z,-2.54
2017-12-16T06:11:55.973Z,-2.63
2017-12-16T06:13:05.953Z,-2.58
2017-12-16T06:14:15.930Z,-2.65
2017-12-16T06:15:25.910Z,-2.63
2017-12-16T06:16:35.890Z,-2.7
2017-12-16T06:17:48.031Z,-2.62
2017-12-16T06:18:58.014Z,-2.63
2017-12-16T06:20:07.461Z,-2.75
2017-12-16T06:21:17.459Z,-2.65
2017-12-16T06:22:27.169Z,-2.63
2017-12-16T06:23:36.888Z,-2.61
2017-12-16T06:24:46.865Z,-2.63
2017-12-16T06:25:56.575Z,-2.69
2017-12-16T06:27:06.293Z,-2.65
2017-12-16T06:28:16.274Z,-2.69
2017-12-16T06:29:26.256Z,-2.73
2017-12-16T06:30:36.245Z,-2.68
2017-12-16T06:31:46.229Z,-2.89
2017-12-16T06:32:56.210Z,-2.91
2017-12-16T06:34:06.196Z,-2.89
2017-12-16T06:35:15.909Z,-2.99
2017-12-16T06:36:25.893Z,-2.96
2017-12-16T06:37:35.876Z,-2.9
2017-12-16T06:38:45.851Z,-3.02
2017-12-16T06:39:55.574Z,-3.01
2017-12-16T06:41:05.550Z,-2.99
2017-12-16T06:42:15.525Z,-3.02
2017-12-16T06:43:25.237Z,-3.05
2017-12-16T06:44:35.215Z,-3.02
2017-12-16T06:45:44.926Z,-3.11
2017-12-16T06:46:54.908Z,-3.01
2017-12-16T06:48:04.888Z,-2.98
2017-12-16T06:49:14.878Z,-3.01
2017-12-16T06:50:24.859Z,-2.98
2017-12-16T06:51:34.833Z,-3.01
2017-12-16T06:52:44.547Z,-3.07
2017-12-16T06:53:54.525Z,-3.05
2017-12-16T06:55:04.505Z,-3.11
2017-12-16T06:56:14.482Z,-3.05
2017-12-16T06:57:24.459Z,-3.07
2017-12-16T06:58:34.442Z,-3.12
2017-12-16T06:59:44.420Z,-2.98
2017-12-16T07:00:54.399Z,-2.99
2017-12-16T07:02:04.374Z,-2.87
2017-12-16T07:03:14.360Z,-2.91
2017-12-16T07:04:24.345Z,-2.86
2017-12-16T07:05:34.332Z,-2.83
2017-12-16T07:06:44.307Z,-2.73
2017-12-16T07:07:54.287Z,-2.7
2017-12-16T07:09:04.269Z,-2.66
2017-12-16T07:10:13.986Z,-2.7
2017-12-16T07:11:23.972Z,-2.62
2017-12-16T07:12:33.688Z,-2.65
2017-12-16T07:13:43.667Z,-2.62
2017-12-16T07:14:53.460Z,-2.58
2017-12-16T07:16:03.444Z,-2.57
2017-12-16T07:17:13.152Z,-2.62
2017-12-16T07:18:22.865Z,-2.55
2017-12-16T07:19:32.848Z,-2.55
2017-12-16T07:20:42.564Z,-2.45
2017-12-16T07:21:52.552Z,-2.55
2017-12-16T07:23:02.536Z,-2.54
2017-12-16T07:24:12.517Z,-2.57
2017-12-16T07:25:22.229Z,-2.54
2017-12-16T07:26:32.208Z,-2.42
2017-12-16T07:27:42.193Z,-2.44
2017-12-16T07:28:52.181Z,-2.42
2017-12-16T07:30:02.161Z,-2.42
2017-12-16T07:31:11.878Z,-2.39
2017-12-16T07:32:21.859Z,-2.42
2017-12-16T07:33:31.579Z,-2.37
2017-12-16T07:34:41.557Z,-2.32
2017-12-16T07:35:51.268Z,-2.45
2017-12-16T07:37:01.248Z,-2.45
2017-12-16T07:38:11.234Z,-2.42
2017-12-16T07:39:21.210Z,-2.47
2017-12-16T07:40:30.930Z,-2.55
2017-12-16T07:41:40.915Z,-2.61
2017-12-16T07:42:50.895Z,-2.63
2017-12-16T07:44:00.907Z,-2.62
2017-12-16T07:45:10.622Z,-2.68
2017-12-16T07:46:20.387Z,-2.78
2017-12-16T07:47:30.379Z,-2.78
2017-12-16T07:48:40.094Z,-2.8
2017-12-16T07:49:50.071Z,-2.84
2017-12-16T07:50:59.519Z,-2.86
2017-12-16T07:52:09.510Z,-2.81
2017-12-16T07:53:19.231Z,-2.76
2017-12-16T07:54:29.216Z,-2.72
2017-12-16T07:55:39.195Z,-2.72
2017-12-16T07:56:48.911Z,-2.72
2017-12-16T07:57:58.894Z,-2.75
2017-12-16T07:59:08.883Z,-2.69
2017-12-16T08:00:18.904Z,-2.62
2017-12-16T08:01:28.898Z,-2.69
2017-12-16T08:02:38.612Z,-2.66
2017-12-16T08:03:48.593Z,-2.68
2017-12-16T08:04:58.322Z,-2.65
2017-12-16T08:06:08.035Z,-2.58
2017-12-16T08:07:18.015Z,-2.61
2017-12-16T08:08:27.999Z,-2.61
2017-12-16T08:09:37.978Z,-2.52
2017-12-16T08:10:47.957Z,-2.5
2017-12-16T08:11:57.937Z,-2.5
2017-12-16T08:13:07.962Z,-2.47
2017-12-16T08:14:17.941Z,-2.51
2017-12-16T08:15:27.925Z,-2.55
2017-12-16T08:16:37.645Z,-2.58
2017-12-16T08:17:47.626Z,-2.62
2017-12-16T08:18:57.607Z,-2.62
2017-12-16T08:20:07.054Z,-2.63
2017-12-16T08:21:17.053Z,-2.61
2017-12-16T08:22:26.512Z,-2.61
2017-12-16T08:23:36.490Z,-2.69
2017-12-16T08:24:46.206Z,-2.58
2017-12-16T08:25:56.192Z,-2.65
2017-12-16T08:27:06.171Z,-2.65
2017-12-16T08:28:15.881Z,-2.65
2017-12-16T08:29:25.867Z,-2.69
2017-12-16T08:30:35.843Z,-2.61
2017-12-16T08:31:45.298Z,-2.68
2017-12-16T08:32:55.351Z,-2.68
2017-12-16T08:34:05.336Z,-2.69
2017-12-16T08:35:15.322Z,-2.57
2017-12-16T08:36:25.034Z,-2.55
2017-12-16T08:37:35.019Z,-2.58
2017-12-16T08:38:45.053Z,-2.54
2017-12-16T08:39:55.061Z,-2.51
2017-12-16T08:41:05.054Z,-2.45
2017-12-16T08:42:15.037Z,-2.37
2017-12-16T08:43:24.753Z,-2.45
2017-12-16T08:44:34.739Z,-2.39
2017-12-16T08:45:44.724Z,-2.51
2017-12-16T08:46:54.707Z,-2.39
2017-12-16T08:48:04.684Z,-2.42
2017-12-16T08:49:14.677Z,-2.42
2017-12-16T08:50:24.658Z,-2.4
2017-12-16T08:51:34.642Z,-2.48
2017-12-16T08:52:44.624Z,-2.44
2017-12-16T08:53:54.608Z,-2.45
2017-12-16T08:55:04.320Z,-2.34
2017-12-16T08:56:14.308Z,-2.23
2017-12-16T08:57:24.288Z,-2.33
2017-12-16T08:58:34.271Z,-2.32
2017-12-16T08:59:43.994Z,-2.34
2017-12-16T09:00:53.712Z,-2.28
2017-12-16T09:02:03.690Z,-2.28
2017-12-16T09:03:13.402Z,-2.29
2017-12-16T09:04:23.378Z,-2.37
2017-12-16T09:05:33.362Z,-2.33
2017-12-16T09:06:43.379Z,-2.37
2017-12-16T09:07:53.091Z,-2.48
2017-12-16T09:09:03.069Z,-2.44
2017-12-16T09:10:12.785Z,-2.39
2017-12-16T09:11:22.764Z,-2.36
2017-12-16T09:12:32.746Z,-2.29
2017-12-16T09:13:42.740Z,-2.33
2017-12-16T09:14:52.718Z,-2.34
2017-12-16T09:16:02.694Z,-2.42
2017-12-16T09:17:12.682Z,-2.44
2017-12-16T09:18:22.395Z,-2.34
2017-12-16T09:19:32.376Z,-2.45
2017-12-16T09:20:42.357Z,-2.44
2017-12-16T09:21:52.332Z,-2.39
2017-12-16T09:23:02.046Z,-2.48
2017-12-16T09:24:12.036Z,-2.51
2017-12-16T09:25:22.019Z,-2.54
2017-12-16T09:26:32.003Z,-2.51
2017-12-16T09:27:41.980Z,-2.55
2017-12-16T09:28:51.969Z,-2.55
2017-12-16T09:30:01.994Z,-2.55
2017-12-16T09:31:11.984Z,-2.54
2017-12-16T09:32:21.959Z,-2.55
2017-12-16T09:33:31.673Z,-2.57
2017-12-16T09:34:41.656Z,-2.57
2017-12-16T09:35:51.640Z,-2.58
2017-12-16T09:37:01.625Z,-2.63
2017-12-16T09:38:11.609Z,-2.51
2017-12-16T09:39:21.589Z,-2.42
2017-12-16T09:40:31.575Z,-2.4
2017-12-16T09:41:41.289Z,-2.45
2017-12-16T09:42:51.019Z,-2.26
2017-12-16T09:44:00.999Z,-2.39
2017-12-16T09:45:10.722Z,-2.23
2017-12-16T09:46:20.700Z,-2.26
2017-12-16T09:47:32.678Z,-2.26
2017-12-16T09:48:42.668Z,-2.4
2017-12-16T09:49:52.390Z,-2.55
2017-12-16T09:51:02.370Z,-2.54
2017-12-16T09:52:12.365Z,-2.8
2017-12-16T09:53:22.086Z,-2.93
2017-12-16T09:54:32.067Z,-2.93
2017-12-16T09:55:42.053Z,-2.94
2017-12-16T09:56:52.041Z,-2.9
2017-12-16T09:58:01.794Z,-2.98
2017-12-16T09:59:13.785Z,-3.05
2017-12-16T10:00:23.765Z,-3.2
2017-12-16T10:01:33.749Z,-3.09
2017-12-16T10:02:43.472Z,-3.09
2017-12-16T10:03:53.455Z,-3.09
2017-12-16T10:05:03.508Z,-3.2
2017-12-16T10:06:13.487Z,-3.23
2017-12-16T10:07:22.933Z,-3.12
2017-12-16T10:08:32.920Z,-3.14
2017-12-16T10:09:42.640Z,-3.15
2017-12-16T10:10:52.355Z,-3.12
2017-12-16T10:12:02.075Z,-3.14
2017-12-16T10:13:12.053Z,-3.19
2017-12-16T10:14:22.034Z,-3.11
2017-12-16T10:15:32.014Z,-3.05
2017-12-16T10:16:41.464Z,-3.05
2017-12-16T10:17:51.175Z,-3.07
2017-12-16T10:19:01.151Z,-3.08
2017-12-16T10:20:11.217Z,-3.04
2017-12-16T10:21:20.935Z,-3.05
2017-12-16T10:22:30.918Z,-3.01
2017-12-16T10:23:40.899Z,-2.99
2017-12-16T10:24:50.878Z,-2.99
2017-12-16T10:26:00.863Z,-3.09
2017-12-16T10:27:10.575Z,-3.11
2017-12-16T10:28:20.557Z,-3.05
2017-12-16T10:29:30.539Z,-2.99
2017-12-16T10:30:39.988Z,-3.02
2017-12-16T10:31:49.966Z,-2.99
2017-12-16T10:32:59.947Z,-3.01
2017-12-16T10:34:09.959Z,-3.01
2017-12-16T10:35:19.419Z,-2.99
2017-12-16T10:36:29.462Z,-2.99
2017-12-16T10:37:39.458Z,-3.01
2017-12-16T10:38:49.436Z,-2.99
2017-12-16T10:39:59.412Z,-2.98
2017-12-16T10:41:09.398Z,-3.01
2017-12-16T10:42:18.580Z,-2.96
2017-12-16T10:43:28.565Z,-2.98
2017-12-16T10:44:38.616Z,-3.02
2017-12-16T10:45:48.598Z,-2.9
2017-12-16T10:46:58.649Z,-2.93
2017-12-16T10:48:08.365Z,-2.87
2017-12-16T10:49:18.085Z,-2.93
2017-12-16T10:50:27.803Z,-2.9
2017-12-16T10:51:37.790Z,-2.94
2017-12-16T10:52:47.774Z,-2.94
2017-12-16T10:53:57.755Z,-2.93
2017-12-16T10:55:07.472Z,-2.94
2017-12-16T10:56:17.205Z,-2.94
2017-12-16T10:57:27.197Z,-2.98
2017-12-16T10:58:36.906Z,-2.94
2017-12-16T10:59:46.882Z,-3.01
2017-12-16T11:00:56.862Z,-2.9
2017-12-16T11:02:06.579Z,-2.94
2017-12-16T11:03:16.295Z,-2.96
2017-12-16T11:04:26.274Z,-3.02
2017-12-16T11:05:36.252Z,-2.94
2017-12-16T11:06:46.241Z,-2.99
2017-12-16T11:07:56.230Z,-2.96
2017-12-16T11:09:06.213Z,-3.04
2017-12-16T11:10:16.193Z,-2.9
2017-12-16T11:11:25.906Z,-2.84
2017-12-16T11:12:35.886Z,-2.87
2017-12-16T11:13:45.334Z,-2.89
2017-12-16T11:14:55.048Z,-2.93
2017-12-16T11:16:05.027Z,-3.01
2017-12-16T11:17:15.013Z,-3.02
2017-12-16T11:18:25.008Z,-2.91
2017-12-16T11:19:34.726Z,-2.93
2017-12-16T11:20:44.442Z,-2.94
2017-12-16T11:21:53.944Z,-2.99
2017-12-16T11:23:03.924Z,-2.98
2017-12-16T11:24:13.901Z,-3.01
2017-12-16T11:25:23.617Z,-3.01
2017-12-16T11:26:33.331Z,-3.02
2017-12-16T11:27:43.310Z,-2.98
2017-12-16T11:28:53.290Z,-2.94
2017-12-16T11:30:03.003Z,-2.99
2017-12-16T11:31:12.993Z,-3.01
2017-12-16T11:32:22.974Z,-2.98
2017-12-16T11:33:32.964Z,-2.99
2017-12-16T11:34:42.697Z,-3.04
2017-12-16T11:35:52.678Z,-3.07
2017-12-16T11:37:02.657Z,-3.11
2017-12-16T11:38:12.641Z,-3.08
2017-12-16T11:39:22.357Z,-3.08
2017-12-16T11:40:32.348Z,-3.09
2017-12-16T11:41:42.326Z,-3.12
2017-12-16T11:42:52.307Z,-3.08
2017-12-16T11:44:02.300Z,-3.08
2017-12-16T11:45:12.287Z,-3.08
2017-12-16T11:46:22.277Z,-3.07
2017-12-16T11:47:32.261Z,-2.99
2017-12-16T11:48:42.261Z,-3.01
2017-12-16T11:49:52.304Z,-3.11
2017-12-16T11:51:02.282Z,-3.08
2017-12-16T11:52:12.281Z,-3.05
2017-12-16T11:53:21.994Z,-3.02
2017-12-16T11:54:31.711Z,-3.01
2017-12-16T11:55:41.692Z,-2.94
2017-12-16T11:56:51.673Z,-2.99
2017-12-16T11:58:01.403Z,-2.94
2017-12-16T11:59:11.446Z,-2.86
2017-12-16T12:00:21.182Z,-2.86
2017-12-16T12:01:31.160Z,-2.91
2017-12-16T12:02:40.879Z,-2.76
2017-12-16T12:03:50.862Z,-2.86
2017-12-16T12:05:00.581Z,-2.89
2017-12-16T12:06:10.294Z,-2.81
2017-12-16T12:07:20.009Z,-2.87
2017-12-16T12:08:29.987Z,-2.89
2017-12-16T12:09:39.978Z,-2.83
2017-12-16T12:10:49.958Z,-2.81
2017-12-16T12:11:59.935Z,-2.87
2017-12-16T12:13:09.653Z,-2.91
2017-12-16T12:14:19.635Z,-2.89
2017-12-16T12:15:29.088Z,-2.9
2017-12-16T12:16:39.073Z,-2.9
2017-12-16T12:17:49.062Z,-2.86
2017-12-16T12:18:59.039Z,-2.91
2017-12-16T12:20:09.022Z,-2.8
2017-12-16T12:21:18.999Z,-2.86
2017-12-16T12:22:29.036Z,-2.86
2017-12-16T12:23:39.017Z,-2.8
2017-12-16T12:24:49.027Z,-2.83
2017-12-16T12:25:58.747Z,-2.86
2017-12-16T12:27:08.469Z,-2.94
2017-12-16T12:28:18.180Z,-2.76
2017-12-16T12:29:28.163Z,-2.73
2017-12-16T12:30:38.148Z,-2.8
2017-12-16T12:31:48.139Z,-2.78
2017-12-16T12:32:58.125Z,-2.76
2017-12-16T12:34:08.122Z,-2.75
2017-12-16T12:35:18.100Z,-2.87
2017-12-16T12:36:28.079Z,-2.91
2017-12-16T12:37:38.065Z,-2.99
2017-12-16T12:38:48.044Z,-2.98
2017-12-16T12:39:58.022Z,-3.07
2017-12-16T12:41:07.756Z,-3.05
2017-12-16T12:42:17.753Z,-3.17
2017-12-16T12:43:27.733Z,-3.08
2017-12-16T12:44:37.721Z,-3.09
2017-12-16T12:45:47.441Z,-3.09
2017-12-16T12:46:57.418Z,-3.11
2017-12-16T12:48:07.396Z,-3.11
2017-12-16T12:49:17.380Z,-3.04
2017-12-16T12:50:27.369Z,-3.09
2017-12-16T12:51:37.363Z,-3.08
2017-12-16T12:52:47.348Z,-3.15
2017-12-16T12:53:57.331Z,-3.17
2017-12-16T12:55:07.318Z,-3.02
2017-12-16T12:56:17.028Z,-3.12
2017-12-16T12:57:26.745Z,-3.14
2017-12-16T12:58:36.726Z,-3.17
2017-12-16T12:59:46.704Z,-3.14
2017-12-16T13:00:56.774Z,-3.2
2017-12-16T13:02:06.822Z,-3.17
2017-12-16T13:03:16.803Z,-3.25
2017-12-16T13:04:26.518Z,-3.23
2017-12-16T13:05:36.502Z,-3.3
2017-12-16T13:06:46.480Z,-3.29
2017-12-16T13:07:56.470Z,-3.29
2017-12-16T13:09:06.450Z,-3.4
2017-12-16T13:10:16.435Z,-3.38
2017-12-16T13:11:26.418Z,-3.47
2017-12-16T13:12:36.408Z,-3.53
2017-12-16T13:13:46.388Z,-3.46
2017-12-16T13:14:56.105Z,-3.47
2017-12-16T13:16:06.085Z,-3.48
2017-12-16T13:17:15.810Z,-3.43
2017-12-16T13:18:25.792Z,-3.53
2017-12-16T13:19:35.778Z,-3.59
2017-12-16T13:20:45.766Z,-3.61
2017-12-16T13:21:55.484Z,-3.59
2017-12-16T13:23:05.199Z,-3.61
2017-12-16T13:24:14.915Z,-3.59
2017-12-16T13:25:24.893Z,-3.58
2017-12-16T13:26:34.604Z,-3.64
2017-12-16T13:27:44.581Z,-3.65
2017-12-16T13:28:54.297Z,-3.64
2017-12-16T13:30:04.012Z,-3.71
2017-12-16T13:31:13.990Z,-3.71
2017-12-16T13:32:24.001Z,-3.66
2017-12-16T13:33:33.980Z,-3.66
2017-12-16T13:34:43.960Z,-3.65
2017-12-16T13:35:53.950Z,-3.8
2017-12-16T13:37:03.932Z,-3.75
2017-12-16T13:38:13.922Z,-3.74
2017-12-16T13:39:23.900Z,-3.87
2017-12-16T13:40:33.922Z,-3.83
2017-12-16T13:41:43.910Z,-3.84
2017-12-16T13:42:53.624Z,-3.83
2017-12-16T13:44:03.341Z,-3.87
2017-12-16T13:45:12.796Z,-3.88
2017-12-16T13:46:22.775Z,-3.84
2017-12-16T13:47:32.753Z,-3.75
2017-12-16T13:48:42.871Z,-3.83
2017-12-16T13:49:52.853Z,-3.87
2017-12-16T13:51:02.836Z,-3.8
2017-12-16T13:52:12.552Z,-3.84
2017-12-16T13:53:22.531Z,-3.88
2017-12-16T13:54:32.511Z,-3.88
2017-12-16T13:55:42.492Z,-3.87
2017-12-16T13:56:52.469Z,-3.9
2017-12-16T13:58:02.180Z,-3.88
2017-12-16T13:59:12.160Z,-3.94
2017-12-16T14:00:22.150Z,-3.95
2017-12-16T14:01:31.600Z,-3.94
2017-12-16T14:02:41.575Z,-4.06
2017-12-16T14:03:51.290Z,-3.91
2017-12-16T14:05:01.282Z,-3.96
2017-12-16T14:06:10.724Z,-4.01
2017-12-16T14:07:20.440Z,-4.04
2017-12-16T14:08:29.888Z,-3.98
2017-12-16T14:09:39.610Z,-4.05
2017-12-16T14:10:49.334Z,-4.06
2017-12-16T14:11:59.313Z,-4.05
2017-12-16T14:13:09.026Z,-4.06
2017-12-16T14:14:19.004Z,-4.02
2017-12-16T14:15:29.043Z,-4.04
2017-12-16T14:16:39.020Z,-4.06
2017-12-16T14:17:49.062Z,-4.08
2017-12-16T14:18:59.040Z,-4.05
2017-12-16T14:20:08.760Z,-4.08
2017-12-16T14:21:18.471Z,-4.02
2017-12-16T14:22:28.505Z,-3.99
2017-12-16T14:23:38.530Z,-4.06
2017-12-16T14:24:47.988Z,-4.05
2017-12-16T14:25:57.701Z,-4.04
2017-12-16T14:27:07.683Z,-4.09
2017-12-16T14:28:17.395Z,-4.2
2017-12-16T14:29:27.112Z,-4.19
2017-12-16T14:30:36.824Z,-4.17
2017-12-16T14:31:46.805Z,-4.17
2017-12-16T14:32:56.786Z,-4.19
2017-12-16T14:34:06.769Z,-4.31
2017-12-16T14:35:16.575Z,-4.26
2017-12-16T14:36:26.552Z,-4.26
2017-12-16T14:37:36.535Z,-4.34
2017-12-16T14:38:46.515Z,-4.23
2017-12-16T14:39:56.499Z,-4.44
2017-12-16T14:41:06.221Z,-4.3
2017-12-16T14:42:16.205Z,-4.42
2017-12-16T14:43:25.923Z,-4.44
2017-12-16T14:44:35.910Z,-4.41
2017-12-16T14:45:45.885Z,-4.41
2017-12-16T14:46:55.873Z,-4.52
2017-12-16T14:48:05.899Z,-4.73
2017-12-16T14:49:15.882Z,-4.76
2017-12-16T14:50:25.330Z,-4.77
2017-12-16T14:51:35.312Z,-4.74
2017-12-16T14:52:45.292Z,-4.84
2017-12-16T14:53:55.271Z,-4.76
2017-12-16T14:55:05.269Z,-4.74
2017-12-16T14:56:14.773Z,-4.84
2017-12-16T14:57:24.757Z,-4.84
2017-12-16T14:58:34.203Z,-4.76
2017-12-16T14:59:44.183Z,-4.8
2017-12-16T15:00:53.896Z,-4.83
2017-12-16T15:02:03.879Z,-4.9
2017-12-16T15:03:13.859Z,-4.94
2017-12-16T15:04:23.843Z,-4.83
2017-12-16T15:05:33.830Z,-4.9